createdAt,value
2022-12-08T00:02:15.470Z,69.85
2022-12-08T00:05:04.870Z,69.80
2022-12-08T00:07:54.274Z,69.89
2022-12-08T00:10:48.472Z,69.55
2022-12-08T00:13:19.192Z,69.11
2022-12-08T00:15:50.070Z,68.61
2022-12-08T00:18:20.821Z,68.35
2022-12-08T00:20:57.318Z,67.48
2022-12-08T00:23:28.260Z,66.83
2022-12-08T00:26:02.556Z,67.30
2022-12-08T00:28:34.472Z,66.93
2022-12-08T00:31:12.079Z,66.11
2022-12-08T00:33:42.451Z,66.07
2022-12-08T00:36:15.310Z,66.19
2022-12-08T00:38:46.037Z,65.78
2022-12-08T00:41:40.732Z,65.32
2022-12-08T00:44:16.446Z,64.34
2022-12-08T00:46:47.374Z,63.62
2022-12-08T00:49:19.259Z,62.96
2022-12-08T00:51:50.063Z,62.61
2022-12-08T00:54:22.195Z,61.80
2022-12-08T00:56:53.031Z,61.60
2022-12-08T00:59:23.875Z,61.86
2022-12-08T01:01:54.195Z,61.19
2022-12-08T01:04:25.129Z,61.43
2022-12-08T01:06:56.471Z,61.08
2022-12-08T01:09:27.313Z,61.37
2022-12-08T01:11:57.878Z,61.32
2022-12-08T01:14:28.967Z,61.02
2022-12-08T01:16:59.248Z,61.07
2022-12-08T01:19:31.836Z,61.12
2022-12-08T01:22:02.513Z,61.21
2022-12-08T01:24:33.568Z,61.17
2022-12-08T01:27:04.282Z,61.06
2022-12-08T01:29:35.491Z,60.77
2022-12-08T01:32:05.641Z,60.27
2022-12-08T01:34:36.615Z,60.51
2022-12-08T01:37:07.437Z,60.58
2022-12-08T01:39:38.204Z,60.40
2022-12-08T01:42:24.317Z,60.82
2022-12-08T01:44:58.780Z,60.40
2022-12-08T01:47:38.065Z,61.38
2022-12-08T01:50:11.895Z,61.37
2022-12-08T01:52:47.800Z,61.91
2022-12-08T01:55:26.675Z,61.38
2022-12-08T01:58:24.670Z,61.58
2022-12-08T02:00:55.925Z,61.38
2022-12-08T02:03:31.124Z,61.87
2022-12-08T02:06:01.790Z,62.30
2022-12-08T02:08:32.921Z,61.85
2022-12-08T02:11:03.750Z,61.72
2022-12-08T02:13:34.588Z,62.45
2022-12-08T02:16:22.694Z,63.22
2022-12-08T02:19:34.032Z,62.86
2022-12-08T02:22:08.711Z,62.83
2022-12-08T02:24:47.485Z,62.63
2022-12-08T02:27:45.616Z,62.47
2022-12-08T02:30:48.835Z,62.26
2022-12-08T02:34:13.836Z,62.90
2022-12-08T02:37:02.101Z,62.37
2022-12-08T02:39:47.064Z,62.20
2022-12-08T02:42:32.361Z,62.24
2022-12-08T02:45:23.807Z,62.44
2022-12-08T02:47:54.705Z,62.77
2022-12-08T02:50:25.404Z,62.85
2022-12-08T02:52:56.082Z,62.47
2022-12-08T02:55:34.320Z,62.83
2022-12-08T02:58:31.642Z,62.73
2022-12-08T03:01:29.956Z,62.49
2022-12-08T03:04:22.977Z,62.14
2022-12-08T03:07:05.000Z,61.73
2022-12-08T03:09:36.109Z,61.80
2022-12-08T03:12:24.681Z,62.17
2022-12-08T03:14:57.680Z,61.41
2022-12-08T03:17:31.149Z,61.00
2022-12-08T03:20:05.985Z,60.49
2022-12-08T03:22:36.716Z,60.47
2022-12-08T03:25:08.257Z,59.82
2022-12-08T03:27:39.654Z,60.59
2022-12-08T03:30:10.663Z,60.03
2022-12-08T03:32:49.772Z,60.07
2022-12-08T03:35:24.396Z,59.77
2022-12-08T03:38:04.408Z,60.02
2022-12-08T03:40:35.260Z,60.01
2022-12-08T03:43:05.598Z,59.65
2022-12-08T03:45:36.544Z,59.85
2022-12-08T03:48:07.398Z,60.01
2022-12-08T03:50:38.649Z,60.01
2022-12-08T03:53:09.331Z,60.15
2022-12-08T03:55:39.871Z,60.47
2022-12-08T03:58:10.401Z,60.61
2022-12-08T04:00:44.391Z,61.02
2022-12-08T04:03:14.811Z,60.37
2022-12-08T04:05:45.460Z,60.18
2022-12-08T04:08:19.417Z,58.98
2022-12-08T04:10:50.321Z,58.06
2022-12-08T04:13:20.604Z,57.50
2022-12-08T04:15:51.823Z,57.33
2022-12-08T04:18:22.367Z,56.83
2022-12-08T04:20:52.626Z,56.13
2022-12-08T04:23:23.099Z,56.30
2022-12-08T04:25:54.441Z,56.84
2022-12-08T04:28:25.736Z,55.95
2022-12-08T04:31:00.715Z,55.98
2022-12-08T04:33:32.277Z,55.47
2022-12-08T04:36:07.559Z,55.10
2022-12-08T04:38:37.838Z,54.72
2022-12-08T04:41:08.566Z,54.78
2022-12-08T04:43:38.809Z,54.26
2022-12-08T04:46:13.526Z,54.00
2022-12-08T04:48:47.164Z,53.91
2022-12-08T04:51:20.596Z,53.66
2022-12-08T04:53:51.419Z,53.43
2022-12-08T04:56:22.054Z,53.52
2022-12-08T04:58:55.218Z,53.57
2022-12-08T05:01:26.390Z,53.35
2022-12-08T05:03:57.285Z,53.50
2022-12-08T05:06:28.455Z,53.43
2022-12-08T05:08:59.541Z,52.69
2022-12-08T05:11:30.223Z,51.80
2022-12-08T05:14:01.011Z,51.16
2022-12-08T05:16:32.836Z,50.70
2022-12-08T05:19:03.442Z,49.90
2022-12-08T05:21:33.861Z,49.70
2022-12-08T05:24:08.144Z,49.93
2022-12-08T05:26:39.442Z,49.29
2022-12-08T05:29:09.771Z,48.83
2022-12-08T05:31:40.055Z,48.80
2022-12-08T05:34:10.625Z,49.42
2022-12-08T05:36:41.355Z,49.19
2022-12-08T05:39:16.174Z,49.40
2022-12-08T05:41:46.468Z,49.18
2022-12-08T05:44:17.145Z,49.28
2022-12-08T05:46:47.461Z,49.01
2022-12-08T05:49:18.400Z,48.51
2022-12-08T05:51:48.976Z,48.33
2022-12-08T05:54:19.790Z,48.18
2022-12-08T05:56:50.646Z,47.89
2022-12-08T05:59:24.279Z,47.21
2022-12-08T06:01:55.349Z,47.11
2022-12-08T06:04:25.802Z,46.96
2022-12-08T06:06:56.634Z,46.46
2022-12-08T06:09:26.985Z,46.34
2022-12-08T06:12:01.981Z,45.78
2022-12-08T06:14:36.413Z,45.96
2022-12-08T06:17:06.818Z,46.19
2022-12-08T06:19:37.791Z,45.93
2022-12-08T06:22:08.281Z,46.20
2022-12-08T06:24:38.989Z,45.70
2022-12-08T06:27:09.311Z,46.20
2022-12-08T06:29:40.034Z,46.37
2022-12-08T06:32:10.605Z,46.37
2022-12-08T06:34:41.259Z,46.52
2022-12-08T06:37:12.163Z,48.09
2022-12-08T06:39:42.481Z,51.30
2022-12-08T06:42:31.328Z,53.48
2022-12-08T06:45:01.842Z,55.02
2022-12-08T06:47:32.847Z,55.85
2022-12-08T06:50:04.225Z,56.41
2022-12-08T06:52:40.869Z,56.70
2022-12-08T06:55:35.315Z,57.83
2022-12-08T06:58:07.587Z,57.89
2022-12-08T07:00:38.146Z,57.98
2022-12-08T07:03:10.126Z,58.30
2022-12-08T07:05:40.884Z,58.35
2022-12-08T07:08:11.701Z,58.50
2022-12-08T07:10:42.971Z,58.53
2022-12-08T07:13:13.573Z,58.54
2022-12-08T07:15:44.686Z,58.04
2022-12-08T07:18:15.328Z,58.27
2022-12-08T07:20:46.239Z,58.14
2022-12-08T07:23:16.630Z,58.33
2022-12-08T07:25:47.600Z,58.50
2022-12-08T07:28:17.878Z,58.65
2022-12-08T07:30:48.451Z,58.82
2022-12-08T07:33:19.372Z,58.71
2022-12-08T07:36:00.250Z,58.66
2022-12-08T07:38:31.517Z,59.01
2022-12-08T07:41:02.796Z,59.91
2022-12-08T07:43:33.981Z,59.90
2022-12-08T07:46:04.386Z,59.41
2022-12-08T07:48:35.000Z,59.24
2022-12-08T07:51:06.801Z,59.59
2022-12-08T07:53:37.298Z,59.54
2022-12-08T07:56:08.874Z,59.49
2022-12-08T07:58:39.758Z,59.57
2022-12-08T08:01:30.513Z,60.34
2022-12-08T08:04:03.262Z,59.40
2022-12-08T08:06:35.629Z,59.67
2022-12-08T08:09:37.718Z,59.67
2022-12-08T08:12:30.215Z,59.98
2022-12-08T08:14:58.992Z,60.51
2022-12-08T08:17:30.595Z,60.90
2022-12-08T08:20:01.862Z,61.13
2022-12-08T08:22:32.852Z,60.98
2022-12-08T08:25:03.918Z,60.91
2022-12-08T08:27:34.237Z,60.51
2022-12-08T08:30:07.102Z,60.64
2022-12-08T08:32:38.220Z,59.37
2022-12-08T08:35:10.449Z,59.11
2022-12-08T08:37:45.594Z,59.02
2022-12-08T08:40:20.902Z,58.68
2022-12-08T08:42:53.728Z,58.38
2022-12-08T08:45:24.459Z,57.57
2022-12-08T08:47:55.114Z,56.29
2022-12-08T08:50:25.620Z,54.78
2022-12-08T08:52:55.916Z,53.28
2022-12-08T08:55:26.681Z,52.63
2022-12-08T08:57:57.145Z,52.13
2022-12-08T09:00:28.908Z,51.93
2022-12-08T09:02:59.514Z,51.52
2022-12-08T09:05:30.288Z,51.26
2022-12-08T09:08:00.564Z,50.70
2022-12-08T09:10:31.261Z,51.05
2022-12-08T09:13:01.511Z,51.13
2022-12-08T09:15:32.903Z,51.50
2022-12-08T09:18:03.336Z,51.25
2022-12-08T09:20:34.946Z,51.98
2022-12-08T09:23:05.612Z,52.21
2022-12-08T09:25:36.094Z,52.51
2022-12-08T09:28:06.457Z,52.02
2022-12-08T09:30:37.008Z,52.21
2022-12-08T09:33:07.530Z,52.21
2022-12-08T09:35:37.909Z,52.42
2022-12-08T09:38:14.271Z,52.14
2022-12-08T09:40:51.081Z,52.14
2022-12-08T09:43:42.136Z,52.34
2022-12-08T09:46:15.849Z,52.02
2022-12-08T09:48:56.795Z,51.80
2022-12-08T09:51:32.988Z,51.96
2022-12-08T09:54:17.329Z,52.58
2022-12-08T09:56:47.994Z,51.89
2022-12-08T09:59:32.428Z,52.30
2022-12-08T10:02:03.864Z,52.40
2022-12-08T10:04:39.180Z,52.68
2022-12-08T10:07:23.098Z,52.42
2022-12-08T10:10:14.441Z,52.10
2022-12-08T10:13:04.796Z,52.58
2022-12-08T10:15:48.430Z,52.09
2022-12-08T10:18:27.226Z,52.52
2022-12-08T10:21:23.201Z,52.62
2022-12-08T10:23:58.066Z,52.12
2022-12-08T10:26:33.535Z,52.55
2022-12-08T10:29:08.017Z,52.46
2022-12-08T10:31:38.772Z,52.71
2022-12-08T10:34:35.164Z,52.75
2022-12-08T10:37:11.299Z,52.89
2022-12-08T10:39:46.726Z,53.05
2022-12-08T10:42:22.510Z,52.78
2022-12-08T10:45:16.638Z,53.01
2022-12-08T10:47:57.573Z,52.85
2022-12-08T10:50:31.283Z,52.86
2022-12-08T10:53:11.333Z,53.18
2022-12-08T10:56:05.143Z,53.26
2022-12-08T10:58:45.952Z,53.38
2022-12-08T11:01:26.081Z,53.54
2022-12-08T11:03:57.764Z,53.79
2022-12-08T11:06:34.208Z,53.56
2022-12-08T11:09:24.935Z,53.80
2022-12-08T11:11:59.717Z,53.73
2022-12-08T11:14:33.602Z,53.90
2022-12-08T11:17:28.678Z,54.09
2022-12-08T11:20:23.887Z,54.80
2022-12-08T11:22:56.676Z,54.14
2022-12-08T11:25:31.300Z,54.11
2022-12-08T11:28:03.390Z,54.00
2022-12-08T11:30:43.248Z,54.23
2022-12-08T11:33:29.051Z,54.53
2022-12-08T11:36:08.701Z,54.44
2022-12-08T11:38:43.790Z,54.53
2022-12-08T11:41:24.330Z,54.63
2022-12-08T11:44:05.920Z,54.79
2022-12-08T11:46:40.511Z,55.05
2022-12-08T11:49:16.586Z,54.56
2022-12-08T11:51:56.299Z,55.28
2022-12-08T11:54:43.459Z,55.50
2022-12-08T11:57:21.797Z,54.91
2022-12-08T11:59:53.866Z,54.92
2022-12-08T12:02:30.897Z,55.37
2022-12-08T12:05:47.858Z,54.66
2022-12-08T12:08:46.422Z,54.56
2022-12-08T12:12:20.126Z,54.79
2022-12-08T12:15:20.896Z,54.36
2022-12-08T12:18:09.752Z,54.47
2022-12-08T12:21:07.197Z,54.29
2022-12-08T12:23:48.045Z,54.11
2022-12-08T12:26:31.019Z,54.29
2022-12-08T12:29:07.424Z,54.72
2022-12-08T12:31:44.109Z,54.13
2022-12-08T12:34:38.062Z,54.76
2022-12-08T12:37:15.312Z,54.62
2022-12-08T12:39:54.083Z,54.83
2022-12-08T12:42:43.143Z,54.86
2022-12-08T12:45:27.123Z,54.82
2022-12-08T12:47:57.647Z,54.96
2022-12-08T12:50:39.532Z,54.94
2022-12-08T12:53:23.830Z,55.06
2022-12-08T12:56:03.355Z,55.01
2022-12-08T12:58:33.688Z,54.65
2022-12-08T13:01:13.709Z,55.29
2022-12-08T13:03:46.912Z,54.87
2022-12-08T13:06:25.748Z,55.24
2022-12-08T13:08:58.013Z,55.38
2022-12-08T13:11:28.980Z,55.56
2022-12-08T13:14:04.777Z,55.72
2022-12-08T13:16:41.096Z,56.11
2022-12-08T13:19:17.917Z,56.35
2022-12-08T13:21:48.501Z,56.03
2022-12-08T13:24:34.574Z,56.02
2022-12-08T13:27:05.018Z,55.73
2022-12-08T13:29:38.181Z,55.76
2022-12-08T13:32:14.498Z,55.88
2022-12-08T13:34:53.955Z,56.19
2022-12-08T13:37:39.658Z,55.63
2022-12-08T13:40:18.181Z,55.67
2022-12-08T13:42:51.300Z,55.44
2022-12-08T13:46:12.227Z,55.98
2022-12-08T13:53:49.183Z,55.66
2022-12-08T13:55:49.758Z,55.60
2022-12-08T13:57:38.790Z,55.63
2022-12-08T14:00:17.545Z,55.99
2022-12-08T14:02:50.549Z,55.57
2022-12-08T14:05:40.823Z,56.04
2022-12-08T14:11:40.044Z,55.83
2022-12-08T14:15:00.672Z,55.53
2022-12-08T14:17:24.236Z,55.27
2022-12-08T14:20:00.401Z,55.07
2022-12-08T14:22:37.618Z,55.21
2022-12-08T14:25:12.774Z,55.29
2022-12-08T14:27:43.644Z,54.37
2022-12-08T14:30:17.284Z,54.80
2022-12-08T14:32:55.767Z,54.60
2022-12-08T14:35:37.909Z,54.71
2022-12-08T14:38:18.540Z,54.64
2022-12-08T14:40:51.179Z,54.40
2022-12-08T14:43:22.235Z,54.68
2022-12-08T14:45:54.322Z,54.76
2022-12-08T14:48:42.970Z,54.49
2022-12-08T14:51:23.059Z,54.41
2022-12-08T14:54:03.093Z,54.31
2022-12-08T14:56:37.880Z,53.66
2022-12-08T14:59:31.070Z,54.66
2022-12-08T15:02:26.650Z,54.61
2022-12-08T15:05:23.393Z,54.51
2022-12-08T15:07:56.182Z,54.79
2022-12-08T15:10:28.966Z,54.72
2022-12-08T15:13:21.924Z,55.23
2022-12-08T15:15:58.655Z,54.85
2022-12-08T15:18:37.888Z,54.76
2022-12-08T15:21:10.111Z,54.58
2022-12-08T15:23:50.474Z,54.58
2022-12-08T15:26:23.276Z,54.42
2022-12-08T15:28:54.327Z,54.90
2022-12-08T15:31:25.845Z,54.65
2022-12-08T15:33:56.712Z,54.78
2022-12-08T15:36:29.729Z,53.90
2022-12-08T15:39:00.202Z,54.09
2022-12-08T15:41:30.617Z,53.91
2022-12-08T15:44:01.678Z,53.96
2022-12-08T15:46:32.646Z,54.08
2022-12-08T15:49:03.646Z,54.80
2022-12-08T15:51:37.755Z,54.53
2022-12-08T15:54:08.068Z,54.78
2022-12-08T15:57:10.544Z,55.07
2022-12-08T15:59:34.405Z,55.22
2022-12-08T16:02:05.602Z,55.38
2022-12-08T16:05:25.176Z,55.79
2022-12-08T16:07:29.657Z,56.03
2022-12-08T16:09:59.948Z,56.17
2022-12-08T16:13:48.116Z,56.18
2022-12-08T16:15:55.133Z,56.86
2022-12-08T16:18:33.286Z,56.44
2022-12-08T16:23:54.774Z,56.59
2022-12-08T16:27:35.058Z,56.93
2022-12-08T16:29:22.414Z,56.49
2022-12-08T16:31:53.680Z,56.04
2022-12-08T16:34:23.957Z,56.36
2022-12-08T16:36:54.291Z,56.26
2022-12-08T16:39:25.587Z,56.51
2022-12-08T16:42:15.138Z,56.64
2022-12-08T16:44:45.717Z,56.90
2022-12-08T16:47:16.790Z,57.26
2022-12-08T16:49:47.706Z,57.18
2022-12-08T16:52:19.433Z,57.59
2022-12-08T16:54:50.524Z,57.95
2022-12-08T16:57:21.097Z,57.90
2022-12-08T16:59:52.658Z,57.70
2022-12-08T17:02:23.158Z,57.67
2022-12-08T17:04:53.640Z,57.52
2022-12-08T17:07:24.662Z,57.45
2022-12-08T17:09:55.001Z,57.46
2022-12-08T17:12:25.477Z,57.42
2022-12-08T17:14:55.821Z,57.78
2022-12-08T17:17:26.354Z,58.30
2022-12-08T17:20:09.256Z,58.94
2022-12-08T17:22:40.109Z,59.04
2022-12-08T17:25:11.075Z,59.34
2022-12-08T17:27:42.347Z,59.02
2022-12-08T17:30:16.481Z,58.93
2022-12-08T17:32:50.192Z,59.41
2022-12-08T17:35:20.927Z,59.46
2022-12-08T17:37:51.451Z,59.97
2022-12-08T17:40:23.651Z,60.13
2022-12-08T17:42:57.838Z,60.03
2022-12-08T17:45:28.136Z,60.17
2022-12-08T17:47:58.645Z,60.09
2022-12-08T17:50:29.296Z,60.67
2022-12-08T17:52:59.913Z,60.78
2022-12-08T17:55:31.010Z,60.97
2022-12-08T17:58:02.387Z,61.66
2022-12-08T18:00:33.740Z,61.98
2022-12-08T18:03:04.576Z,61.68
2022-12-08T18:05:36.263Z,62.23
2022-12-08T18:08:06.979Z,61.81
2022-12-08T18:10:37.478Z,62.25
2022-12-08T18:13:10.393Z,62.24
2022-12-08T18:15:41.023Z,62.88
2022-12-08T18:18:11.324Z,63.25
2022-12-08T18:20:42.299Z,62.85
2022-12-08T18:23:12.625Z,63.09
2022-12-08T18:25:42.682Z,63.24
2022-12-08T18:28:12.935Z,63.60
2022-12-08T18:30:43.467Z,63.90
2022-12-08T18:33:13.755Z,64.22
2022-12-08T18:35:44.242Z,63.75
2022-12-08T18:38:14.790Z,63.83
2022-12-08T18:40:44.896Z,64.26
2022-12-08T18:43:15.978Z,64.09
2022-12-08T18:45:46.845Z,64.19
2022-12-08T18:48:17.695Z,64.31
2022-12-08T18:50:49.714Z,64.37
2022-12-08T18:53:20.358Z,64.16
2022-12-08T18:55:51.939Z,64.27
2022-12-08T18:58:22.962Z,64.29
2022-12-08T19:00:53.736Z,64.17
2022-12-08T19:03:24.510Z,64.37
2022-12-08T19:06:08.162Z,64.20
2022-12-08T19:08:38.764Z,64.64
2022-12-08T19:11:25.138Z,64.84
2022-12-08T19:13:56.483Z,64.43
2022-12-08T19:16:26.973Z,64.69
2022-12-08T19:18:58.127Z,64.95
2022-12-08T19:21:28.662Z,64.47
2022-12-08T19:23:59.607Z,64.97
2022-12-08T19:26:30.520Z,65.03
2022-12-08T19:29:01.094Z,65.06
2022-12-08T19:31:31.389Z,64.94
2022-12-08T19:34:02.025Z,64.86
2022-12-08T19:36:36.338Z,64.96
2022-12-08T19:39:25.399Z,65.32
2022-12-08T19:42:14.165Z,65.09
2022-12-08T19:44:54.033Z,65.54
2022-12-08T19:47:26.358Z,65.10
2022-12-08T19:50:17.254Z,65.37
2022-12-08T19:52:47.793Z,65.45
2022-12-08T19:55:18.643Z,65.32
2022-12-08T19:57:49.227Z,65.16
2022-12-08T20:00:20.901Z,65.20
2022-12-08T20:02:52.623Z,65.26
2022-12-08T20:05:24.331Z,65.20
2022-12-08T20:07:56.653Z,65.36
2022-12-08T20:10:29.774Z,65.03
2022-12-08T20:13:18.295Z,65.35
2022-12-08T20:15:48.874Z,65.29
2022-12-08T20:18:20.053Z,65.02
2022-12-08T20:20:50.674Z,65.46
2022-12-08T20:23:21.178Z,65.36
2022-12-08T20:25:53.740Z,65.53
2022-12-08T20:28:24.773Z,65.03
2022-12-08T20:30:55.308Z,65.33
2022-12-08T20:33:26.104Z,64.86
2022-12-08T20:36:01.249Z,64.91
2022-12-08T20:38:32.229Z,65.14
2022-12-08T20:41:02.765Z,64.82
2022-12-08T20:43:33.448Z,64.80
2022-12-08T20:46:12.166Z,64.64
2022-12-08T20:48:43.832Z,64.71
2022-12-08T20:51:19.302Z,64.78
2022-12-08T20:53:49.702Z,64.62
2022-12-08T20:56:22.839Z,64.70
2022-12-08T20:58:54.273Z,65.03
2022-12-08T21:01:26.094Z,64.86
2022-12-08T21:03:56.748Z,65.17
2022-12-08T21:06:30.789Z,64.89
2022-12-08T21:09:01.580Z,64.86
2022-12-08T21:11:32.527Z,64.93
2022-12-08T21:14:04.822Z,65.03
2022-12-08T21:16:35.621Z,64.96
2022-12-08T21:19:06.937Z,65.28
2022-12-08T21:21:37.178Z,65.89
2022-12-08T21:24:08.421Z,65.58
2022-12-08T21:26:39.535Z,65.87
2022-12-08T21:29:18.352Z,66.10
2022-12-08T21:31:49.151Z,66.12
2022-12-08T21:34:19.510Z,66.39
2022-12-08T21:36:50.426Z,66.66
2022-12-08T21:39:21.066Z,66.69
2022-12-08T21:42:22.859Z,66.77
2022-12-08T21:44:53.983Z,67.19
2022-12-08T21:47:24.725Z,67.35
2022-12-08T21:49:56.027Z,67.66
2022-12-08T21:52:26.932Z,67.92
2022-12-08T21:54:57.749Z,67.92
2022-12-08T21:57:28.832Z,68.10
2022-12-08T21:59:59.634Z,68.92
2022-12-08T22:02:30.528Z,69.16
2022-12-08T22:05:01.524Z,68.78
2022-12-08T22:07:32.962Z,69.30
2022-12-08T22:10:03.913Z,69.46
2022-12-08T22:12:36.800Z,69.38
2022-12-08T22:15:09.069Z,69.09
2022-12-08T22:17:44.478Z,69.38
2022-12-08T22:20:16.377Z,69.44
2022-12-08T22:22:47.711Z,69.89
2022-12-08T22:25:18.415Z,69.80
2022-12-08T22:27:49.007Z,69.35
2022-12-08T22:30:19.486Z,69.63
2022-12-08T22:32:49.883Z,69.58
2022-12-08T22:35:20.395Z,69.73
2022-12-08T22:37:51.643Z,70.13
2022-12-08T22:40:22.414Z,70.42
2022-12-08T22:42:52.835Z,70.34
2022-12-08T22:45:24.834Z,70.14
2022-12-08T22:47:55.432Z,70.00
2022-12-08T22:50:26.470Z,70.38
2022-12-08T22:52:56.624Z,70.71
2022-12-08T22:55:27.503Z,70.42
2022-12-08T22:57:58.162Z,70.81
2022-12-08T23:00:29.390Z,71.10
2022-12-08T23:03:00.236Z,70.80
2022-12-08T23:05:35.108Z,70.65
2022-12-08T23:08:06.662Z,71.07
2022-12-08T23:10:37.676Z,71.02
2022-12-08T23:13:08.734Z,71.30
2022-12-08T23:15:40.511Z,71.64
2022-12-08T23:18:16.335Z,71.66
2022-12-08T23:20:47.679Z,71.72
2022-12-08T23:23:18.646Z,71.47
2022-12-08T23:25:49.019Z,71.49
2022-12-08T23:28:19.364Z,71.97
2022-12-08T23:30:49.953Z,71.18
2022-12-08T23:33:20.931Z,71.16
2022-12-08T23:35:59.215Z,71.59
2022-12-08T23:38:31.665Z,71.66
2022-12-08T23:41:06.543Z,72.05
2022-12-08T23:43:37.360Z,72.42
2022-12-08T23:46:08.515Z,71.98
2022-12-08T23:48:39.146Z,72.40
2022-12-08T23:51:09.793Z,72.11
2022-12-08T23:53:40.169Z,72.08
2022-12-08T23:56:17.014Z,72.28
2022-12-08T23:58:48.116Z,72.49
